sensor_id;sensor_type;location;lat;lon;timestamp;temperature;humidity
21637;DHT22;10980;49.596;6.142;2023-09-18T00:03:04;19.00;99.90
21637;DHT22;10980;49.596;6.142;2023-09-18T00:06:26;19.10;99.90
21637;DHT22;10980;49.596;6.142;2023-09-18T00:09:48;19.20;99.90
21637;DHT22;10980;49.596;6.142;2023-09-18T00:13:10;19.30;99.90
21637;DHT22;10980;49.596;6.142;2023-09-18T00:16:32;19.50;99.90
21637;DHT22;10980;49.596;6.142;2023-09-18T00:20:13;19.20;99.90
21637;DHT22;10980;49.596;6.142;2023-09-18T00:23:37;18.60;99.90
21637;DHT22;10980;49.596;6.142;2023-09-18T00:27:00;18.20;99.90
21637;DHT22;10980;49.596;6.142;2023-09-18T00:30:21;18.10;99.90
21637;DHT22;10980;49.596;6.142;2023-09-18T00:33:45;18.00;99.90
21637;DHT22;10980;49.596;6.142;2023-09-18T00:37:11;17.90;99.90
21637;DHT22;10980;49.596;6.142;2023-09-18T00:40:40;17.80;99.90
21637;DHT22;10980;49.596;6.142;2023-09-18T00:44:02;17.70;99.90
21637;DHT22;10980;49.596;6.142;2023-09-18T00:47:25;17.50;99.90
21637;DHT22;10980;49.596;6.142;2023-09-18T00:50:50;17.40;99.90
21637;DHT22;10980;49.596;6.142;2023-09-18T00:54:12;17.20;99.90
21637;DHT22;10980;49.596;6.142;2023-09-18T00:57:38;17.10;99.90
21637;DHT22;10980;49.596;6.142;2023-09-18T01:01:00;17.00;99.90
21637;DHT22;10980;49.596;6.142;2023-09-18T01:04:23;17.00;99.90
21637;DHT22;10980;49.596;6.142;2023-09-18T01:07:50;17.00;99.90
21637;DHT22;10980;49.596;6.142;2023-09-18T01:15:35;17.00;99.90
21637;DHT22;10980;49.596;6.142;2023-09-18T01:19:04;16.90;99.90
21637;DHT22;10980;49.596;6.142;2023-09-18T01:22:30;16.90;99.90
21637;DHT22;10980;49.596;6.142;2023-09-18T01:25:52;16.80;99.90
21637;DHT22;10980;49.596;6.142;2023-09-18T01:29:14;16.80;99.90
21637;DHT22;10980;49.596;6.142;2023-09-18T01:32:37;16.80;99.90
21637;DHT22;10980;49.596;6.142;2023-09-18T01:36:03;16.80;99.90
21637;DHT22;10980;49.596;6.142;2023-09-18T01:39:28;16.70;99.90
21637;DHT22;10980;49.596;6.142;2023-09-18T01:43:17;16.60;99.90
21637;DHT22;10980;49.596;6.142;2023-09-18T01:46:44;16.60;99.90
21637;DHT22;10980;49.596;6.142;2023-09-18T01:50:06;16.50;99.90
21637;DHT22;10980;49.596;6.142;2023-09-18T01:53:29;16.50;99.90
21637;DHT22;10980;49.596;6.142;2023-09-18T01:56:55;16.50;99.90
21637;DHT22;10980;49.596;6.142;2023-09-18T02:00:17;16.50;99.90
21637;DHT22;10980;49.596;6.142;2023-09-18T02:03:40;16.50;99.90
21637;DHT22;10980;49.596;6.142;2023-09-18T02:07:25;16.50;99.90
21637;DHT22;10980;49.596;6.142;2023-09-18T02:10:48;16.40;99.90
21637;DHT22;10980;49.596;6.142;2023-09-18T02:14:16;16.40;99.90
21637;DHT22;10980;49.596;6.142;2023-09-18T02:17:38;16.30;99.90
21637;DHT22;10980;49.596;6.142;2023-09-18T02:21:01;16.30;99.90
21637;DHT22;10980;49.596;6.142;2023-09-18T02:24:24;16.30;99.90
21637;DHT22;10980;49.596;6.142;2023-09-18T02:27:48;16.30;99.90
21637;DHT22;10980;49.596;6.142;2023-09-18T02:31:13;16.20;99.90
21637;DHT22;10980;49.596;6.142;2023-09-18T02:34:35;16.30;99.90
21637;DHT22;10980;49.596;6.142;2023-09-18T02:37:57;16.30;99.90
21637;DHT22;10980;49.596;6.142;2023-09-18T02:41:21;16.30;99.90
21637;DHT22;10980;49.596;6.142;2023-09-18T02:44:43;16.20;99.90
21637;DHT22;10980;49.596;6.142;2023-09-18T02:48:05;16.20;99.90
21637;DHT22;10980;49.596;6.142;2023-09-18T02:51:27;16.10;99.90
21637;DHT22;10980;49.596;6.142;2023-09-18T02:54:49;16.10;99.90
21637;DHT22;10980;49.596;6.142;2023-09-18T02:58:11;16.10;99.90
21637;DHT22;10980;49.596;6.142;2023-09-18T03:01:33;16.10;99.90
21637;DHT22;10980;49.596;6.142;2023-09-18T03:04:56;16.10;99.90
21637;DHT22;10980;49.596;6.142;2023-09-18T03:08:18;16.00;99.90
21637;DHT22;10980;49.596;6.142;2023-09-18T03:11:41;16.00;99.90
21637;DHT22;10980;49.596;6.142;2023-09-18T03:15:03;16.00;99.90
21637;DHT22;10980;49.596;6.142;2023-09-18T03:18:28;16.00;99.90
21637;DHT22;10980;49.596;6.142;2023-09-18T03:21:50;16.10;99.90
21637;DHT22;10980;49.596;6.142;2023-09-18T03:25:12;16.20;99.90
21637;DHT22;10980;49.596;6.142;2023-09-18T03:28:34;16.20;99.90
21637;DHT22;10980;49.596;6.142;2023-09-18T03:31:56;16.20;99.90
21637;DHT22;10980;49.596;6.142;2023-09-18T03:35:20;16.30;99.90
21637;DHT22;10980;49.596;6.142;2023-09-18T03:38:43;16.30;99.90
21637;DHT22;10980;49.596;6.142;2023-09-18T03:42:05;16.30;99.90
21637;DHT22;10980;49.596;6.142;2023-09-18T03:45:27;16.40;99.90
21637;DHT22;10980;49.596;6.142;2023-09-18T03:48:49;16.30;99.90
21637;DHT22;10980;49.596;6.142;2023-09-18T03:52:12;16.30;99.90
21637;DHT22;10980;49.596;6.142;2023-09-18T03:55:34;16.30;99.90
21637;DHT22;10980;49.596;6.142;2023-09-18T03:58:56;16.30;99.90
21637;DHT22;10980;49.596;6.142;2023-09-18T04:02:23;16.30;99.90
21637;DHT22;10980;49.596;6.142;2023-09-18T04:05:47;16.40;99.90
21637;DHT22;10980;49.596;6.142;2023-09-18T04:09:09;16.40;99.90
21637;DHT22;10980;49.596;6.142;2023-09-18T04:12:31;16.40;99.90
21637;DHT22;10980;49.596;6.142;2023-09-18T04:15:53;16.50;99.90
21637;DHT22;10980;49.596;6.142;2023-09-18T04:19:19;16.50;99.90
21637;DHT22;10980;49.596;6.142;2023-09-18T04:22:46;16.60;99.90
21637;DHT22;10980;49.596;6.142;2023-09-18T04:26:12;16.50;99.90
21637;DHT22;10980;49.596;6.142;2023-09-18T04:29:37;16.50;99.90
21637;DHT22;10980;49.596;6.142;2023-09-18T04:33:00;16.50;99.90
21637;DHT22;10980;49.596;6.142;2023-09-18T04:36:24;16.50;99.90
21637;DHT22;10980;49.596;6.142;2023-09-18T04:39:46;16.50;99.90
21637;DHT22;10980;49.596;6.142;2023-09-18T04:43:08;16.50;99.90
21637;DHT22;10980;49.596;6.142;2023-09-18T04:46:31;16.50;99.90
21637;DHT22;10980;49.596;6.142;2023-09-18T04:49:53;16.40;99.90
21637;DHT22;10980;49.596;6.142;2023-09-18T04:53:15;16.50;99.90
21637;DHT22;10980;49.596;6.142;2023-09-18T04:56:37;16.40;99.90
21637;DHT22;10980;49.596;6.142;2023-09-18T04:59:59;16.40;99.90
21637;DHT22;10980;49.596;6.142;2023-09-18T05:03:38;16.40;99.90
21637;DHT22;10980;49.596;6.142;2023-09-18T05:07:04;16.40;99.90
21637;DHT22;10980;49.596;6.142;2023-09-18T05:10:26;16.50;99.90
21637;DHT22;10980;49.596;6.142;2023-09-18T05:13:48;16.50;99.90
21637;DHT22;10980;49.596;6.142;2023-09-18T05:17:14;16.60;99.90
21637;DHT22;10980;49.596;6.142;2023-09-18T05:20:37;16.60;99.90
21637;DHT22;10980;49.596;6.142;2023-09-18T05:23:59;16.60;99.90
21637;DHT22;10980;49.596;6.142;2023-09-18T05:27:21;16.70;99.90
21637;DHT22;10980;49.596;6.142;2023-09-18T05:30:47;16.70;99.90
21637;DHT22;10980;49.596;6.142;2023-09-18T05:34:09;16.70;99.90
21637;DHT22;10980;49.596;6.142;2023-09-18T05:37:32;16.80;99.90
21637;DHT22;10980;49.596;6.142;2023-09-18T05:40:54;16.80;99.90
21637;DHT22;10980;49.596;6.142;2023-09-18T05:44:16;16.90;99.90
21637;DHT22;10980;49.596;6.142;2023-09-18T05:47:38;17.00;99.90
21637;DHT22;10980;49.596;6.142;2023-09-18T05:51:00;17.50;99.90
21637;DHT22;10980;49.596;6.142;2023-09-18T05:54:22;17.40;99.90
21637;DHT22;10980;49.596;6.142;2023-09-18T05:57:44;17.40;99.90
21637;DHT22;10980;49.596;6.142;2023-09-18T06:01:06;17.30;99.90
21637;DHT22;10980;49.596;6.142;2023-09-18T06:04:29;17.30;99.90
21637;DHT22;10980;49.596;6.142;2023-09-18T06:07:52;17.30;99.90
21637;DHT22;10980;49.596;6.142;2023-09-18T06:11:14;17.30;99.90
21637;DHT22;10980;49.596;6.142;2023-09-18T06:14:36;17.30;99.90
21637;DHT22;10980;49.596;6.142;2023-09-18T06:17:59;17.40;99.90
21637;DHT22;10980;49.596;6.142;2023-09-18T06:21:21;17.40;99.90
21637;DHT22;10980;49.596;6.142;2023-09-18T06:24:44;17.40;99.90
21637;DHT22;10980;49.596;6.142;2023-09-18T06:28:07;17.40;99.90
21637;DHT22;10980;49.596;6.142;2023-09-18T06:31:29;17.50;99.90
21637;DHT22;10980;49.596;6.142;2023-09-18T06:34:52;17.50;99.90
21637;DHT22;10980;49.596;6.142;2023-09-18T06:38:14;17.50;99.90
21637;DHT22;10980;49.596;6.142;2023-09-18T06:41:36;17.50;99.90
21637;DHT22;10980;49.596;6.142;2023-09-18T06:44:59;17.50;99.90
21637;DHT22;10980;49.596;6.142;2023-09-18T06:48:23;17.50;99.90
21637;DHT22;10980;49.596;6.142;2023-09-18T06:51:45;17.60;99.90
21637;DHT22;10980;49.596;6.142;2023-09-18T06:55:07;17.60;99.90
21637;DHT22;10980;49.596;6.142;2023-09-18T06:58:30;17.70;99.90
21637;DHT22;10980;49.596;6.142;2023-09-18T07:01:53;18.00;99.90
21637;DHT22;10980;49.596;6.142;2023-09-18T07:05:15;18.20;99.90
21637;DHT22;10980;49.596;6.142;2023-09-18T07:08:37;18.40;99.90
21637;DHT22;10980;49.596;6.142;2023-09-18T07:11:58;18.60;99.90
21637;DHT22;10980;49.596;6.142;2023-09-18T07:15:21;18.80;99.90
21637;DHT22;10980;49.596;6.142;2023-09-18T07:18:43;18.90;99.90
21637;DHT22;10980;49.596;6.142;2023-09-18T07:22:05;19.00;99.90
21637;DHT22;10980;49.596;6.142;2023-09-18T07:25:26;19.10;99.90
21637;DHT22;10980;49.596;6.142;2023-09-18T07:28:49;19.20;99.90
21637;DHT22;10980;49.596;6.142;2023-09-18T07:32:11;19.20;99.90
21637;DHT22;10980;49.596;6.142;2023-09-18T07:35:37;19.20;99.90
21637;DHT22;10980;49.596;6.142;2023-09-18T07:38:59;19.40;99.90
21637;DHT22;10980;49.596;6.142;2023-09-18T07:42:27;19.50;99.90
21637;DHT22;10980;49.596;6.142;2023-09-18T07:45:49;19.60;99.90
21637;DHT22;10980;49.596;6.142;2023-09-18T07:49:11;19.70;99.90
21637;DHT22;10980;49.596;6.142;2023-09-18T07:52:33;19.70;99.90
21637;DHT22;10980;49.596;6.142;2023-09-18T07:55:56;19.70;99.90
21637;DHT22;10980;49.596;6.142;2023-09-18T07:59:20;19.70;99.90
21637;DHT22;10980;49.596;6.142;2023-09-18T08:02:42;19.70;99.90
21637;DHT22;10980;49.596;6.142;2023-09-18T08:06:05;19.90;99.90
21637;DHT22;10980;49.596;6.142;2023-09-18T08:09:27;20.00;99.90
21637;DHT22;10980;49.596;6.142;2023-09-18T08:12:51;20.20;99.90
21637;DHT22;10980;49.596;6.142;2023-09-18T08:16:14;20.40;99.90
21637;DHT22;10980;49.596;6.142;2023-09-18T08:19:36;20.50;99.90
21637;DHT22;10980;49.596;6.142;2023-09-18T08:22:58;20.60;99.90
21637;DHT22;10980;49.596;6.142;2023-09-18T08:26:25;20.60;99.90
21637;DHT22;10980;49.596;6.142;2023-09-18T08:29:50;20.60;99.90
21637;DHT22;10980;49.596;6.142;2023-09-18T08:33:12;20.60;99.90
21637;DHT22;10980;49.596;6.142;2023-09-18T08:36:34;20.70;99.90
21637;DHT22;10980;49.596;6.142;2023-09-18T08:39:56;20.80;99.90
21637;DHT22;10980;49.596;6.142;2023-09-18T08:43:18;21.00;99.90
21637;DHT22;10980;49.596;6.142;2023-09-18T08:46:41;21.10;99.90
21637;DHT22;10980;49.596;6.142;2023-09-18T08:50:05;21.20;99.90
21637;DHT22;10980;49.596;6.142;2023-09-18T08:53:31;21.20;99.90
21637;DHT22;10980;49.596;6.142;2023-09-18T08:56:54;21.20;99.90
21637;DHT22;10980;49.596;6.142;2023-09-18T09:00:16;21.20;99.90
21637;DHT22;10980;49.596;6.142;2023-09-18T09:03:40;21.30;99.90
21637;DHT22;10980;49.596;6.142;2023-09-18T09:07:03;21.30;99.90
21637;DHT22;10980;49.596;6.142;2023-09-18T09:10:25;21.50;99.90
21637;DHT22;10980;49.596;6.142;2023-09-18T09:13:47;21.70;99.90
21637;DHT22;10980;49.596;6.142;2023-09-18T09:17:09;21.80;99.90
21637;DHT22;10980;49.596;6.142;2023-09-18T09:20:32;21.90;99.90
21637;DHT22;10980;49.596;6.142;2023-09-18T09:23:55;21.70;99.90
21637;DHT22;10980;49.596;6.142;2023-09-18T09:27:17;21.70;99.90
21637;DHT22;10980;49.596;6.142;2023-09-18T09:30:40;21.70;99.90
21637;DHT22;10980;49.596;6.142;2023-09-18T09:34:02;21.70;99.90
21637;DHT22;10980;49.596;6.142;2023-09-18T09:37:30;21.90;99.90
21637;DHT22;10980;49.596;6.142;2023-09-18T09:40:52;22.30;99.70
21637;DHT22;10980;49.596;6.142;2023-09-18T09:44:15;22.70;98.90
21637;DHT22;10980;49.596;6.142;2023-09-18T09:47:38;23.30;97.30
21637;DHT22;10980;49.596;6.142;2023-09-18T09:51:00;24.10;94.80
21637;DHT22;10980;49.596;6.142;2023-09-18T09:54:33;24.80;92.40
21637;DHT22;10980;49.596;6.142;2023-09-18T09:58:04;25.30;91.10
21637;DHT22;10980;49.596;6.142;2023-09-18T10:01:27;25.70;88.90
21637;DHT22;10980;49.596;6.142;2023-09-18T10:04:52;25.70;86.80
21637;DHT22;10980;49.596;6.142;2023-09-18T10:08:21;25.60;88.10
21637;DHT22;10980;49.596;6.142;2023-09-18T10:11:45;26.00;86.50
21637;DHT22;10980;49.596;6.142;2023-09-18T10:15:14;25.90;85.20
21637;DHT22;10980;49.596;6.142;2023-09-18T10:19:07;25.60;85.60
21637;DHT22;10980;49.596;6.142;2023-09-18T10:22:44;25.70;85.30
21637;DHT22;10980;49.596;6.142;2023-09-18T10:26:09;25.50;85.70
21637;DHT22;10980;49.596;6.142;2023-09-18T10:29:35;25.70;85.10
21637;DHT22;10980;49.596;6.142;2023-09-18T10:32:58;25.70;83.70
21637;DHT22;10980;49.596;6.142;2023-09-18T10:36:21;25.60;84.00
21637;DHT22;10980;49.596;6.142;2023-09-18T10:39:45;25.40;84.80
21637;DHT22;10980;49.596;6.142;2023-09-18T10:43:11;25.20;85.20
21637;DHT22;10980;49.596;6.142;2023-09-18T10:46:37;25.20;85.80
21637;DHT22;10980;49.596;6.142;2023-09-18T10:49:59;25.20;85.30
21637;DHT22;10980;49.596;6.142;2023-09-18T10:53:25;25.30;85.60
21637;DHT22;10980;49.596;6.142;2023-09-18T10:56:47;25.50;84.70
21637;DHT22;10980;49.596;6.142;2023-09-18T11:00:11;25.40;85.60
21637;DHT22;10980;49.596;6.142;2023-09-18T11:03:37;25.50;85.20
21637;DHT22;10980;49.596;6.142;2023-09-18T11:07:04;25.70;85.20
21637;DHT22;10980;49.596;6.142;2023-09-18T11:10:27;25.90;84.10
21637;DHT22;10980;49.596;6.142;2023-09-18T11:13:52;26.10;83.60
21637;DHT22;10980;49.596;6.142;2023-09-18T11:21:15;26.10;82.80
21637;DHT22;10980;49.596;6.142;2023-09-18T11:24:39;26.10;83.40
21637;DHT22;10980;49.596;6.142;2023-09-18T11:28:02;26.10;82.40
21637;DHT22;10980;49.596;6.142;2023-09-18T11:31:44;26.20;81.70
21637;DHT22;10980;49.596;6.142;2023-09-18T11:35:08;26.30;81.30
21637;DHT22;10980;49.596;6.142;2023-09-18T11:38:34;26.20;80.80
21637;DHT22;10980;49.596;6.142;2023-09-18T11:42:07;25.90;81.90
21637;DHT22;10980;49.596;6.142;2023-09-18T11:45:33;25.70;82.50
21637;DHT22;10980;49.596;6.142;2023-09-18T11:48:55;25.40;83.80
21637;DHT22;10980;49.596;6.142;2023-09-18T11:52:19;25.60;82.90
21637;DHT22;10980;49.596;6.142;2023-09-18T11:55:42;25.40;83.10
21637;DHT22;10980;49.596;6.142;2023-09-18T11:59:04;25.40;83.90
21637;DHT22;10980;49.596;6.142;2023-09-18T12:02:31;25.20;83.10
21637;DHT22;10980;49.596;6.142;2023-09-18T12:06:02;24.90;84.70
21637;DHT22;10980;49.596;6.142;2023-09-18T12:09:27;24.60;86.20
21637;DHT22;10980;49.596;6.142;2023-09-18T12:12:49;24.40;86.90
21637;DHT22;10980;49.596;6.142;2023-09-18T12:16:12;24.30;86.20
21637;DHT22;10980;49.596;6.142;2023-09-18T12:19:34;24.30;87.30
21637;DHT22;10980;49.596;6.142;2023-09-18T12:22:56;24.20;87.10
21637;DHT22;10980;49.596;6.142;2023-09-18T12:26:18;24.20;86.70
21637;DHT22;10980;49.596;6.142;2023-09-18T12:29:42;24.10;86.90
21637;DHT22;10980;49.596;6.142;2023-09-18T12:33:05;24.10;86.90
21637;DHT22;10980;49.596;6.142;2023-09-18T12:36:27;24.20;87.20
21637;DHT22;10980;49.596;6.142;2023-09-18T12:39:49;24.20;86.00
21637;DHT22;10980;49.596;6.142;2023-09-18T12:43:14;24.20;86.80
21637;DHT22;10980;49.596;6.142;2023-09-18T12:46:37;24.20;86.10
21637;DHT22;10980;49.596;6.142;2023-09-18T12:50:03;24.30;87.10
21637;DHT22;10980;49.596;6.142;2023-09-18T12:53:25;24.70;83.80
21637;DHT22;10980;49.596;6.142;2023-09-18T12:56:47;24.90;81.60
21637;DHT22;10980;49.596;6.142;2023-09-18T13:00:09;24.90;82.70
21637;DHT22;10980;49.596;6.142;2023-09-18T13:03:35;25.00;82.20
21637;DHT22;10980;49.596;6.142;2023-09-18T13:07:10;25.30;80.40
21637;DHT22;10980;49.596;6.142;2023-09-18T13:10:47;25.40;79.60
21637;DHT22;10980;49.596;6.142;2023-09-18T13:14:14;25.40;80.80
21637;DHT22;10980;49.596;6.142;2023-09-18T13:17:37;25.30;80.70
21637;DHT22;10980;49.596;6.142;2023-09-18T13:21:08;25.40;80.20
21637;DHT22;10980;49.596;6.142;2023-09-18T13:24:31;25.40;79.00
21637;DHT22;10980;49.596;6.142;2023-09-18T13:27:54;25.30;79.10
21637;DHT22;10980;49.596;6.142;2023-09-18T13:31:16;25.10;80.60
21637;DHT22;10980;49.596;6.142;2023-09-18T13:34:39;24.90;81.20
21637;DHT22;10980;49.596;6.142;2023-09-18T13:38:02;24.70;81.70
21637;DHT22;10980;49.596;6.142;2023-09-18T13:41:27;24.80;81.60
21637;DHT22;10980;49.596;6.142;2023-09-18T13:44:49;24.80;80.40
21637;DHT22;10980;49.596;6.142;2023-09-18T13:48:11;24.80;80.00
21637;DHT22;10980;49.596;6.142;2023-09-18T13:51:34;24.80;80.90
21637;DHT22;10980;49.596;6.142;2023-09-18T13:54:56;24.80;80.40
21637;DHT22;10980;49.596;6.142;2023-09-18T13:58:18;25.00;79.70
21637;DHT22;10980;49.596;6.142;2023-09-18T14:01:40;25.00;79.10
21637;DHT22;10980;49.596;6.142;2023-09-18T14:05:02;25.00;79.30
21637;DHT22;10980;49.596;6.142;2023-09-18T14:08:25;25.00;79.10
21637;DHT22;10980;49.596;6.142;2023-09-18T14:11:46;24.80;79.80
21637;DHT22;10980;49.596;6.142;2023-09-18T14:15:09;24.60;81.00
21637;DHT22;10980;49.596;6.142;2023-09-18T14:18:32;24.40;81.50
21637;DHT22;10980;49.596;6.142;2023-09-18T14:21:55;24.20;82.50
21637;DHT22;10980;49.596;6.142;2023-09-18T14:25:17;24.30;82.30
21637;DHT22;10980;49.596;6.142;2023-09-18T14:28:41;24.30;81.50
21637;DHT22;10980;49.596;6.142;2023-09-18T14:32:06;24.30;81.30
21637;DHT22;10980;49.596;6.142;2023-09-18T14:35:29;24.30;80.90
21637;DHT22;10980;49.596;6.142;2023-09-18T14:38:51;24.20;82.10
21637;DHT22;10980;49.596;6.142;2023-09-18T14:42:13;24.20;82.40
21637;DHT22;10980;49.596;6.142;2023-09-18T14:45:36;24.10;82.10
21637;DHT22;10980;49.596;6.142;2023-09-18T14:49:00;24.30;82.20
21637;DHT22;10980;49.596;6.142;2023-09-18T14:52:22;24.40;81.90
21637;DHT22;10980;49.596;6.142;2023-09-18T14:55:47;24.60;81.40
21637;DHT22;10980;49.596;6.142;2023-09-18T14:59:10;24.70;81.20
21637;DHT22;10980;49.596;6.142;2023-09-18T15:02:32;24.80;80.90
21637;DHT22;10980;49.596;6.142;2023-09-18T15:05:56;24.80;80.40
21637;DHT22;10980;49.596;6.142;2023-09-18T15:09:18;24.90;80.50
21637;DHT22;10980;49.596;6.142;2023-09-18T15:12:40;24.90;80.50
21637;DHT22;10980;49.596;6.142;2023-09-18T15:16:04;25.00;80.50
21637;DHT22;10980;49.596;6.142;2023-09-18T15:19:27;25.10;79.90
21637;DHT22;10980;49.596;6.142;2023-09-18T15:22:50;25.00;79.90
21637;DHT22;10980;49.596;6.142;2023-09-18T15:26:12;24.80;80.60
21637;DHT22;10980;49.596;6.142;2023-09-18T15:29:34;24.60;81.40
21637;DHT22;10980;49.596;6.142;2023-09-18T15:32:56;24.40;82.30
21637;DHT22;10980;49.596;6.142;2023-09-18T15:36:18;24.20;81.80
21637;DHT22;10980;49.596;6.142;2023-09-18T15:39:40;24.10;82.80
21637;DHT22;10980;49.596;6.142;2023-09-18T15:43:03;23.90;83.10
21637;DHT22;10980;49.596;6.142;2023-09-18T15:46:26;23.70;84.20
21637;DHT22;10980;49.596;6.142;2023-09-18T15:49:48;23.60;85.10
21637;DHT22;10980;49.596;6.142;2023-09-18T15:53:10;23.50;85.90
21637;DHT22;10980;49.596;6.142;2023-09-18T15:56:32;23.40;85.90
21637;DHT22;10980;49.596;6.142;2023-09-18T15:59:55;23.50;85.50
21637;DHT22;10980;49.596;6.142;2023-09-18T16:03:17;23.50;86.40
21637;DHT22;10980;49.596;6.142;2023-09-18T16:06:39;23.50;86.20
21637;DHT22;10980;49.596;6.142;2023-09-18T16:10:02;23.40;86.50
21637;DHT22;10980;49.596;6.142;2023-09-18T16:13:25;23.50;87.00
21637;DHT22;10980;49.596;6.142;2023-09-18T16:16:50;23.70;86.40
21637;DHT22;10980;49.596;6.142;2023-09-18T16:20:13;23.70;86.00
21637;DHT22;10980;49.596;6.142;2023-09-18T16:23:35;23.70;86.10
21637;DHT22;10980;49.596;6.142;2023-09-18T16:26:57;23.40;86.90
21637;DHT22;10980;49.596;6.142;2023-09-18T16:30:19;23.20;87.10
21637;DHT22;10980;49.596;6.142;2023-09-18T16:33:41;23.10;88.50
21637;DHT22;10980;49.596;6.142;2023-09-18T16:37:04;23.00;88.80
21637;DHT22;10980;49.596;6.142;2023-09-18T16:40:26;23.10;88.90
21637;DHT22;10980;49.596;6.142;2023-09-18T16:43:53;23.20;88.20
21637;DHT22;10980;49.596;6.142;2023-09-18T16:47:15;23.30;88.20
21637;DHT22;10980;49.596;6.142;2023-09-18T16:50:37;23.30;87.50
21637;DHT22;10980;49.596;6.142;2023-09-18T16:53:59;23.10;88.30
21637;DHT22;10980;49.596;6.142;2023-09-18T16:57:21;23.00;89.20
21637;DHT22;10980;49.596;6.142;2023-09-18T17:00:43;22.80;90.10
21637;DHT22;10980;49.596;6.142;2023-09-18T17:04:05;22.80;90.20
21637;DHT22;10980;49.596;6.142;2023-09-18T17:07:28;22.70;90.00
21637;DHT22;10980;49.596;6.142;2023-09-18T17:10:53;22.50;90.20
21637;DHT22;10980;49.596;6.142;2023-09-18T17:14:15;22.30;90.70
21637;DHT22;10980;49.596;6.142;2023-09-18T17:17:38;22.20;90.80
21637;DHT22;10980;49.596;6.142;2023-09-18T17:21:00;22.00;91.20
21637;DHT22;10980;49.596;6.142;2023-09-18T17:24:22;21.90;91.30
21637;DHT22;10980;49.596;6.142;2023-09-18T17:27:44;21.70;92.00
21637;DHT22;10980;49.596;6.142;2023-09-18T17:31:06;21.50;92.20
21637;DHT22;10980;49.596;6.142;2023-09-18T17:34:28;21.50;92.50
21637;DHT22;10980;49.596;6.142;2023-09-18T17:37:50;21.40;92.60
21637;DHT22;10980;49.596;6.142;2023-09-18T17:41:13;21.40;92.90
21637;DHT22;10980;49.596;6.142;2023-09-18T17:44:35;21.30;93.20
21637;DHT22;10980;49.596;6.142;2023-09-18T17:47:57;21.20;93.40
21637;DHT22;10980;49.596;6.142;2023-09-18T17:51:19;21.10;93.70
21637;DHT22;10980;49.596;6.142;2023-09-18T17:54:41;21.00;93.80
21637;DHT22;10980;49.596;6.142;2023-09-18T17:58:03;21.00;94.00
21637;DHT22;10980;49.596;6.142;2023-09-18T18:01:25;21.00;94.10
21637;DHT22;10980;49.596;6.142;2023-09-18T18:04:47;21.00;94.10
21637;DHT22;10980;49.596;6.142;2023-09-18T18:08:11;21.00;94.40
21637;DHT22;10980;49.596;6.142;2023-09-18T18:11:33;21.00;94.30
21637;DHT22;10980;49.596;6.142;2023-09-18T18:14:56;21.10;94.10
21637;DHT22;10980;49.596;6.142;2023-09-18T18:18:18;21.20;93.80
21637;DHT22;10980;49.596;6.142;2023-09-18T18:21:40;21.30;93.70
21637;DHT22;10980;49.596;6.142;2023-09-18T18:25:02;21.30;93.60
21637;DHT22;10980;49.596;6.142;2023-09-18T18:28:24;21.20;93.80
21637;DHT22;10980;49.596;6.142;2023-09-18T18:31:46;21.10;94.20
21637;DHT22;10980;49.596;6.142;2023-09-18T18:35:11;21.10;94.40
21637;DHT22;10980;49.596;6.142;2023-09-18T18:38:34;21.10;94.20
21637;DHT22;10980;49.596;6.142;2023-09-18T18:41:57;21.10;94.10
21637;DHT22;10980;49.596;6.142;2023-09-18T18:45:19;21.10;93.90
21637;DHT22;10980;49.596;6.142;2023-09-18T18:48:45;21.10;94.00
21637;DHT22;10980;49.596;6.142;2023-09-18T18:52:07;21.00;94.30
21637;DHT22;10980;49.596;6.142;2023-09-18T18:55:29;20.90;94.50
21637;DHT22;10980;49.596;6.142;2023-09-18T18:58:51;20.90;94.70
21637;DHT22;10980;49.596;6.142;2023-09-18T19:02:13;20.80;95.00
21637;DHT22;10980;49.596;6.142;2023-09-18T19:05:35;20.60;95.50
21637;DHT22;10980;49.596;6.142;2023-09-18T19:08:59;20.50;96.00
21637;DHT22;10980;49.596;6.142;2023-09-18T19:12:21;20.50;96.30
21637;DHT22;10980;49.596;6.142;2023-09-18T19:15:43;20.40;95.90
21637;DHT22;10980;49.596;6.142;2023-09-18T19:19:05;20.20;96.30
21637;DHT22;10980;49.596;6.142;2023-09-18T19:22:27;20.10;97.10
21637;DHT22;10980;49.596;6.142;2023-09-18T19:25:53;20.00;97.50
21637;DHT22;10980;49.596;6.142;2023-09-18T19:29:16;20.00;97.70
21637;DHT22;10980;49.596;6.142;2023-09-18T19:32:40;19.90;98.00
21637;DHT22;10980;49.596;6.142;2023-09-18T19:36:02;19.90;97.80
21637;DHT22;10980;49.596;6.142;2023-09-18T19:39:24;19.80;98.30
21637;DHT22;10980;49.596;6.142;2023-09-18T19:42:46;19.80;98.50
21637;DHT22;10980;49.596;6.142;2023-09-18T19:46:08;19.90;98.70
21637;DHT22;10980;49.596;6.142;2023-09-18T19:49:33;20.10;98.10
21637;DHT22;10980;49.596;6.142;2023-09-18T19:52:55;20.10;98.00
21637;DHT22;10980;49.596;6.142;2023-09-18T19:56:17;20.20;98.00
21637;DHT22;10980;49.596;6.142;2023-09-18T19:59:39;20.00;97.50
21637;DHT22;10980;49.596;6.142;2023-09-18T20:03:02;19.80;97.30
21637;DHT22;10980;49.596;6.142;2023-09-18T20:06:25;19.70;97.30
21637;DHT22;10980;49.596;6.142;2023-09-18T20:09:51;19.50;98.10
21637;DHT22;10980;49.596;6.142;2023-09-18T20:13:13;19.40;99.30
21637;DHT22;10980;49.596;6.142;2023-09-18T20:16:35;19.40;99.90
21637;DHT22;10980;49.596;6.142;2023-09-18T20:19:57;19.50;99.90
21637;DHT22;10980;49.596;6.142;2023-09-18T20:23:19;19.60;99.90
21637;DHT22;10980;49.596;6.142;2023-09-18T20:26:41;19.40;99.90
21637;DHT22;10980;49.596;6.142;2023-09-18T20:30:10;18.90;99.90
21637;DHT22;10980;49.596;6.142;2023-09-18T20:33:33;18.30;99.90
21637;DHT22;10980;49.596;6.142;2023-09-18T20:36:56;17.90;99.90
21637;DHT22;10980;49.596;6.142;2023-09-18T20:40:19;17.70;99.90
21637;DHT22;10980;49.596;6.142;2023-09-18T20:43:41;17.50;99.90
21637;DHT22;10980;49.596;6.142;2023-09-18T20:47:07;17.30;99.90
21637;DHT22;10980;49.596;6.142;2023-09-18T20:50:29;17.10;99.90
21637;DHT22;10980;49.596;6.142;2023-09-18T20:53:51;16.90;99.90
21637;DHT22;10980;49.596;6.142;2023-09-18T20:57:13;16.90;99.90
21637;DHT22;10980;49.596;6.142;2023-09-18T21:00:35;16.80;99.90
21637;DHT22;10980;49.596;6.142;2023-09-18T21:04:00;16.70;99.90
21637;DHT22;10980;49.596;6.142;2023-09-18T21:07:25;16.70;99.90
21637;DHT22;10980;49.596;6.142;2023-09-18T21:10:50;16.60;99.90
21637;DHT22;10980;49.596;6.142;2023-09-18T21:14:13;16.60;99.90
21637;DHT22;10980;49.596;6.142;2023-09-18T21:17:34;16.50;99.90
21637;DHT22;10980;49.596;6.142;2023-09-18T21:20:57;16.50;99.90
21637;DHT22;10980;49.596;6.142;2023-09-18T21:24:20;16.50;99.90
21637;DHT22;10980;49.596;6.142;2023-09-18T21:27:42;16.50;99.90
21637;DHT22;10980;49.596;6.142;2023-09-18T21:31:11;16.40;99.90
21637;DHT22;10980;49.596;6.142;2023-09-18T21:34:36;16.30;99.90